sensor_id;sensor_type;location;lat;lon;timestamp;P1;durP1;ratioP1;P2;durP2;ratioP2
63342;SDS011;49465;57.664;39.686;2023-03-01T00:01:07;2.03;;;0.60;;
63342;SDS011;49465;57.664;39.686;2023-03-01T00:03:35;2.53;;;1.23;;
63342;SDS011;49465;57.664;39.686;2023-03-01T00:06:02;0.30;;;0.30;;
63342;SDS011;49465;57.664;39.686;2023-03-01T00:08:29;2.08;;;1.20;;
63342;SDS011;49465;57.664;39.686;2023-03-01T00:13:40;0.30;;;0.30;;
63342;SDS011;49465;57.664;39.686;2023-03-01T00:16:10;0.50;;;0.40;;
63342;SDS011;49465;57.664;39.686;2023-03-01T00:18:41;1.25;;;0.35;;
63342;SDS011;49465;57.664;39.686;2023-03-01T00:21:08;0.63;;;0.30;;
63342;SDS011;49465;57.664;39.686;2023-03-01T00:23:35;2.80;;;0.88;;
63342;SDS011;49465;57.664;39.686;2023-03-01T00:26:05;3.17;;;1.00;;
63342;SDS011;49465;57.664;39.686;2023-03-01T00:28:38;3.22;;;0.95;;
63342;SDS011;49465;57.664;39.686;2023-03-01T00:31:05;3.58;;;1.13;;
63342;SDS011;49465;57.664;39.686;2023-03-01T00:33:33;0.93;;;0.28;;
63342;SDS011;49465;57.664;39.686;2023-03-01T00:36:00;2.85;;;0.93;;
63342;SDS011;49465;57.664;39.686;2023-03-01T00:38:28;0.22;;;0.22;;
63342;SDS011;49465;57.664;39.686;2023-03-01T00:40:55;1.73;;;0.60;;
63342;SDS011;49465;57.664;39.686;2023-03-01T00:43:27;2.08;;;0.28;;
63342;SDS011;49465;57.664;39.686;2023-03-01T00:45:56;0.73;;;0.20;;
63342;SDS011;49465;57.664;39.686;2023-03-01T00:48:30;0.10;;;0.10;;
63342;SDS011;49465;57.664;39.686;2023-03-01T00:50:56;3.20;;;0.80;;
63342;SDS011;49465;57.664;39.686;2023-03-01T00:53:29;0.43;;;0.43;;
63342;SDS011;49465;57.664;39.686;2023-03-01T00:55:58;3.38;;;0.98;;
63342;SDS011;49465;57.664;39.686;2023-03-01T00:58:25;1.40;;;0.38;;
63342;SDS011;49465;57.664;39.686;2023-03-01T01:00:54;2.28;;;0.85;;
63342;SDS011;49465;57.664;39.686;2023-03-01T01:03:21;0.98;;;0.20;;
63342;SDS011;49465;57.664;39.686;2023-03-01T01:05:52;2.13;;;0.52;;
63342;SDS011;49465;57.664;39.686;2023-03-01T01:08:19;1.55;;;0.30;;
63342;SDS011;49465;57.664;39.686;2023-03-01T01:10:46;3.63;;;1.15;;
63342;SDS011;49465;57.664;39.686;2023-03-01T01:13:13;1.65;;;0.30;;
63342;SDS011;49465;57.664;39.686;2023-03-01T01:15:39;0.20;;;0.20;;
63342;SDS011;49465;57.664;39.686;2023-03-01T01:18:06;1.60;;;0.38;;
63342;SDS011;49465;57.664;39.686;2023-03-01T01:20:32;0.40;;;0.40;;
63342;SDS011;49465;57.664;39.686;2023-03-01T01:23:00;0.32;;;0.32;;
63342;SDS011;49465;57.664;39.686;2023-03-01T01:25:28;0.30;;;0.30;;
63342;SDS011;49465;57.664;39.686;2023-03-01T01:27:55;3.97;;;1.17;;
63342;SDS011;49465;57.664;39.686;2023-03-01T01:30:21;4.18;;;1.48;;
63342;SDS011;49465;57.664;39.686;2023-03-01T01:32:47;2.95;;;1.02;;
63342;SDS011;49465;57.664;39.686;2023-03-01T01:35:14;1.13;;;0.43;;
63342;SDS011;49465;57.664;39.686;2023-03-01T01:37:43;0.20;;;0.20;;
63342;SDS011;49465;57.664;39.686;2023-03-01T01:40:09;0.20;;;0.20;;
63342;SDS011;49465;57.664;39.686;2023-03-01T01:42:36;2.70;;;1.13;;
63342;SDS011;49465;57.664;39.686;2023-03-01T01:45:26;0.52;;;0.32;;
63342;SDS011;49465;57.664;39.686;2023-03-01T01:47:54;0.30;;;0.30;;
63342;SDS011;49465;57.664;39.686;2023-03-01T01:50:28;5.15;;;0.50;;
63342;SDS011;49465;57.664;39.686;2023-03-01T01:53:03;0.52;;;0.38;;
63342;SDS011;49465;57.664;39.686;2023-03-01T01:55:33;1.85;;;0.63;;
63342;SDS011;49465;57.664;39.686;2023-03-01T01:58:05;0.80;;;0.20;;
63342;SDS011;49465;57.664;39.686;2023-03-01T02:00:34;30.90;;;14.05;;
63342;SDS011;49465;57.664;39.686;2023-03-01T02:03:07;3.00;;;0.80;;
63342;SDS011;49465;57.664;39.686;2023-03-01T02:05:49;0.95;;;0.50;;
63342;SDS011;49465;57.664;39.686;2023-03-01T02:08:32;3.10;;;1.45;;
63342;SDS011;49465;57.664;39.686;2023-03-01T02:11:04;1.67;;;0.70;;
63342;SDS011;49465;57.664;39.686;2023-03-01T02:13:31;0.98;;;0.98;;
63342;SDS011;49465;57.664;39.686;2023-03-01T02:15:59;3.92;;;1.30;;
63342;SDS011;49465;57.664;39.686;2023-03-01T02:18:34;7.30;;;0.40;;
63342;SDS011;49465;57.664;39.686;2023-03-01T02:23:42;4.32;;;1.80;;
63342;SDS011;49465;57.664;39.686;2023-03-01T02:28:59;0.20;;;0.20;;
63342;SDS011;49465;57.664;39.686;2023-03-01T02:31:26;0.45;;;0.45;;
63342;SDS011;49465;57.664;39.686;2023-03-01T02:34:12;0.50;;;0.35;;
63342;SDS011;49465;57.664;39.686;2023-03-01T02:36:46;1.25;;;0.60;;
63342;SDS011;49465;57.664;39.686;2023-03-01T02:42:09;1.85;;;0.50;;
63342;SDS011;49465;57.664;39.686;2023-03-01T02:44:42;0.65;;;0.30;;
63342;SDS011;49465;57.664;39.686;2023-03-01T02:47:09;0.35;;;0.35;;
63342;SDS011;49465;57.664;39.686;2023-03-01T02:49:38;1.52;;;0.47;;
63342;SDS011;49465;57.664;39.686;2023-03-01T02:57:31;4.07;;;2.35;;
63342;SDS011;49465;57.664;39.686;2023-03-01T03:00:03;0.93;;;0.57;;
63342;SDS011;49465;57.664;39.686;2023-03-01T03:02:33;2.03;;;0.50;;
63342;SDS011;49465;57.664;39.686;2023-03-01T03:05:11;2.67;;;0.52;;
63342;SDS011;49465;57.664;39.686;2023-03-01T03:07:41;0.35;;;0.30;;
63342;SDS011;49465;57.664;39.686;2023-03-01T03:10:17;2.42;;;0.50;;
63342;SDS011;49465;57.664;39.686;2023-03-01T03:12:52;0.43;;;0.43;;
63342;SDS011;49465;57.664;39.686;2023-03-01T03:15:20;4.72;;;0.90;;
63342;SDS011;49465;57.664;39.686;2023-03-01T03:17:47;4.63;;;2.10;;
63342;SDS011;49465;57.664;39.686;2023-03-01T03:20:18;1.27;;;0.68;;
63342;SDS011;49465;57.664;39.686;2023-03-01T03:22:47;1.25;;;0.30;;
63342;SDS011;49465;57.664;39.686;2023-03-01T03:25:18;2.85;;;0.60;;
63342;SDS011;49465;57.664;39.686;2023-03-01T03:27:50;1.55;;;0.63;;
63342;SDS011;49465;57.664;39.686;2023-03-01T03:30:32;0.45;;;0.45;;
63342;SDS011;49465;57.664;39.686;2023-03-01T03:32:59;1.17;;;0.52;;
63342;SDS011;49465;57.664;39.686;2023-03-01T03:37:56;0.35;;;0.30;;
63342;SDS011;49465;57.664;39.686;2023-03-01T03:40:31;0.43;;;0.30;;
63342;SDS011;49465;57.664;39.686;2023-03-01T03:42:58;4.25;;;1.70;;
63342;SDS011;49465;57.664;39.686;2023-03-01T03:45:24;0.30;;;0.30;;
63342;SDS011;49465;57.664;39.686;2023-03-01T03:47:53;0.20;;;0.20;;
63342;SDS011;49465;57.664;39.686;2023-03-01T03:50:22;1.88;;;0.40;;
63342;SDS011;49465;57.664;39.686;2023-03-01T03:52:54;0.47;;;0.22;;
63342;SDS011;49465;57.664;39.686;2023-03-01T03:55:25;1.20;;;0.40;;
63342;SDS011;49465;57.664;39.686;2023-03-01T03:57:56;1.45;;;0.40;;
63342;SDS011;49465;57.664;39.686;2023-03-01T04:00:27;0.75;;;0.50;;
63342;SDS011;49465;57.664;39.686;2023-03-01T04:02:56;3.00;;;1.23;;
63342;SDS011;49465;57.664;39.686;2023-03-01T04:05:22;0.25;;;0.25;;
63342;SDS011;49465;57.664;39.686;2023-03-01T04:07:49;0.68;;;0.30;;
63342;SDS011;49465;57.664;39.686;2023-03-01T04:10:29;4.03;;;1.42;;
63342;SDS011;49465;57.664;39.686;2023-03-01T04:12:57;0.50;;;0.50;;
63342;SDS011;49465;57.664;39.686;2023-03-01T04:15:27;0.65;;;0.50;;
63342;SDS011;49465;57.664;39.686;2023-03-01T04:17:56;0.88;;;0.55;;
63342;SDS011;49465;57.664;39.686;2023-03-01T04:20:31;3.63;;;1.30;;
63342;SDS011;49465;57.664;39.686;2023-03-01T04:25:39;0.80;;;0.30;;
63342;SDS011;49465;57.664;39.686;2023-03-01T04:28:06;0.95;;;0.50;;
63342;SDS011;49465;57.664;39.686;2023-03-01T04:30:34;0.47;;;0.47;;
63342;SDS011;49465;57.664;39.686;2023-03-01T04:33:03;0.38;;;0.38;;
63342;SDS011;49465;57.664;39.686;2023-03-01T04:35:35;0.47;;;0.28;;
63342;SDS011;49465;57.664;39.686;2023-03-01T04:38:04;3.40;;;0.60;;
63342;SDS011;49465;57.664;39.686;2023-03-01T04:40:34;1.15;;;0.43;;
63342;SDS011;49465;57.664;39.686;2023-03-01T04:43:01;0.43;;;0.35;;
63342;SDS011;49465;57.664;39.686;2023-03-01T04:45:31;2.45;;;0.30;;
63342;SDS011;49465;57.664;39.686;2023-03-01T04:47:59;0.85;;;0.40;;
63342;SDS011;49465;57.664;39.686;2023-03-01T04:50:25;0.88;;;0.55;;
63342;SDS011;49465;57.664;39.686;2023-03-01T04:52:55;1.85;;;0.73;;
63342;SDS011;49465;57.664;39.686;2023-03-01T04:55:24;0.38;;;0.30;;
63342;SDS011;49465;57.664;39.686;2023-03-01T04:57:52;1.38;;;0.60;;
63342;SDS011;49465;57.664;39.686;2023-03-01T05:00:22;1.25;;;0.93;;
63342;SDS011;49465;57.664;39.686;2023-03-01T05:03:01;0.45;;;0.40;;
63342;SDS011;49465;57.664;39.686;2023-03-01T05:05:34;1.17;;;0.50;;
63342;SDS011;49465;57.664;39.686;2023-03-01T05:08:03;1.17;;;0.52;;
63342;SDS011;49465;57.664;39.686;2023-03-01T05:10:32;0.80;;;0.80;;
63342;SDS011;49465;57.664;39.686;2023-03-01T05:13:06;3.15;;;1.05;;
63342;SDS011;49465;57.664;39.686;2023-03-01T05:15:33;0.73;;;0.70;;
63342;SDS011;49465;57.664;39.686;2023-03-01T05:18:02;1.35;;;0.45;;
63342;SDS011;49465;57.664;39.686;2023-03-01T05:20:36;3.30;;;0.73;;
63342;SDS011;49465;57.664;39.686;2023-03-01T05:23:06;6.22;;;2.22;;
63342;SDS011;49465;57.664;39.686;2023-03-01T05:25:34;4.80;;;2.30;;
63342;SDS011;49465;57.664;39.686;2023-03-01T05:28:05;1.02;;;0.60;;
63342;SDS011;49465;57.664;39.686;2023-03-01T05:30:38;6.37;;;2.07;;
63342;SDS011;49465;57.664;39.686;2023-03-01T05:33:08;0.73;;;0.38;;
63342;SDS011;49465;57.664;39.686;2023-03-01T05:35:41;1.77;;;0.65;;
63342;SDS011;49465;57.664;39.686;2023-03-01T05:38:14;2.20;;;0.85;;
63342;SDS011;49465;57.664;39.686;2023-03-01T05:40:45;1.13;;;0.50;;
63342;SDS011;49465;57.664;39.686;2023-03-01T05:43:16;2.72;;;0.60;;
63342;SDS011;49465;57.664;39.686;2023-03-01T05:45:43;4.70;;;2.70;;
63342;SDS011;49465;57.664;39.686;2023-03-01T05:48:13;2.38;;;0.98;;
63342;SDS011;49465;57.664;39.686;2023-03-01T05:50:43;0.50;;;0.50;;
63342;SDS011;49465;57.664;39.686;2023-03-01T05:53:19;12.35;;;2.25;;
63342;SDS011;49465;57.664;39.686;2023-03-01T05:55:51;0.63;;;0.60;;
63342;SDS011;49465;57.664;39.686;2023-03-01T05:58:18;0.93;;;0.80;;
63342;SDS011;49465;57.664;39.686;2023-03-01T06:00:50;0.68;;;0.60;;
63342;SDS011;49465;57.664;39.686;2023-03-01T06:03:16;5.50;;;2.30;;
63342;SDS011;49465;57.664;39.686;2023-03-01T06:05:43;5.55;;;2.17;;
63342;SDS011;49465;57.664;39.686;2023-03-01T06:08:24;0.47;;;0.47;;
63342;SDS011;49465;57.664;39.686;2023-03-01T06:10:53;6.13;;;2.25;;
63342;SDS011;49465;57.664;39.686;2023-03-01T06:13:19;1.00;;;0.82;;
63342;SDS011;49465;57.664;39.686;2023-03-01T06:15:46;0.80;;;0.68;;
63342;SDS011;49465;57.664;39.686;2023-03-01T06:18:13;4.40;;;0.68;;
63342;SDS011;49465;57.664;39.686;2023-03-01T06:20:42;0.43;;;0.40;;
63342;SDS011;49465;57.664;39.686;2023-03-01T06:23:09;1.58;;;1.48;;
63342;SDS011;49465;57.664;39.686;2023-03-01T06:25:37;4.57;;;2.20;;
63342;SDS011;49465;57.664;39.686;2023-03-01T06:28:06;4.90;;;1.98;;
63342;SDS011;49465;57.664;39.686;2023-03-01T06:30:36;1.27;;;0.50;;
63342;SDS011;49465;57.664;39.686;2023-03-01T06:33:08;3.15;;;1.00;;
63342;SDS011;49465;57.664;39.686;2023-03-01T06:35:35;0.50;;;0.47;;
63342;SDS011;49465;57.664;39.686;2023-03-01T06:38:10;4.72;;;2.35;;
63342;SDS011;49465;57.664;39.686;2023-03-01T06:40:40;1.92;;;0.80;;
63342;SDS011;49465;57.664;39.686;2023-03-01T06:43:12;1.50;;;1.00;;
63342;SDS011;49465;57.664;39.686;2023-03-01T06:45:38;3.25;;;0.52;;
63342;SDS011;49465;57.664;39.686;2023-03-01T06:48:10;5.82;;;3.00;;
63342;SDS011;49465;57.664;39.686;2023-03-01T06:50:42;8.85;;;3.20;;
63342;SDS011;49465;57.664;39.686;2023-03-01T06:53:08;1.23;;;0.55;;
63342;SDS011;49465;57.664;39.686;2023-03-01T06:55:35;5.75;;;1.73;;
63342;SDS011;49465;57.664;39.686;2023-03-01T06:58:06;7.70;;;4.15;;
63342;SDS011;49465;57.664;39.686;2023-03-01T07:00:36;8.27;;;4.13;;
63342;SDS011;49465;57.664;39.686;2023-03-01T07:03:02;2.45;;;0.98;;
63342;SDS011;49465;57.664;39.686;2023-03-01T07:05:34;2.20;;;1.10;;
63342;SDS011;49465;57.664;39.686;2023-03-01T07:08:07;1.80;;;0.98;;
63342;SDS011;49465;57.664;39.686;2023-03-01T07:10:38;3.47;;;1.02;;
63342;SDS011;49465;57.664;39.686;2023-03-01T07:13:05;9.25;;;3.92;;
63342;SDS011;49465;57.664;39.686;2023-03-01T07:15:34;2.63;;;1.23;;
63342;SDS011;49465;57.664;39.686;2023-03-01T07:18:06;7.35;;;3.85;;
63342;SDS011;49465;57.664;39.686;2023-03-01T07:20:36;3.42;;;1.15;;
63342;SDS011;49465;57.664;39.686;2023-03-01T07:23:11;2.95;;;1.05;;
63342;SDS011;49465;57.664;39.686;2023-03-01T07:25:40;5.97;;;3.50;;
63342;SDS011;49465;57.664;39.686;2023-03-01T07:28:09;6.32;;;3.33;;
63342;SDS011;49465;57.664;39.686;2023-03-01T07:30:41;2.63;;;1.35;;
63342;SDS011;49465;57.664;39.686;2023-03-01T07:33:10;1.52;;;0.70;;
63342;SDS011;49465;57.664;39.686;2023-03-01T07:35:37;0.73;;;0.60;;
63342;SDS011;49465;57.664;39.686;2023-03-01T07:38:11;5.82;;;3.40;;
63342;SDS011;49465;57.664;39.686;2023-03-01T07:40:40;7.90;;;3.00;;
63342;SDS011;49465;57.664;39.686;2023-03-01T07:43:11;2.38;;;1.00;;
63342;SDS011;49465;57.664;39.686;2023-03-01T07:45:49;4.45;;;1.45;;
63342;SDS011;49465;57.664;39.686;2023-03-01T07:48:19;1.13;;;0.68;;
63342;SDS011;49465;57.664;39.686;2023-03-01T07:50:48;4.03;;;2.10;;
63342;SDS011;49465;57.664;39.686;2023-03-01T07:53:18;4.03;;;2.38;;
63342;SDS011;49465;57.664;39.686;2023-03-01T07:55:44;5.68;;;2.15;;
63342;SDS011;49465;57.664;39.686;2023-03-01T07:58:13;5.03;;;2.60;;
63342;SDS011;49465;57.664;39.686;2023-03-01T08:00:45;5.13;;;2.45;;
63342;SDS011;49465;57.664;39.686;2023-03-01T08:03:14;0.70;;;0.50;;
63342;SDS011;49465;57.664;39.686;2023-03-01T08:05:41;1.85;;;0.90;;
63342;SDS011;49465;57.664;39.686;2023-03-01T08:08:12;4.85;;;2.33;;
63342;SDS011;49465;57.664;39.686;2023-03-01T08:10:39;1.65;;;0.80;;
63342;SDS011;49465;57.664;39.686;2023-03-01T08:13:07;5.43;;;2.40;;
63342;SDS011;49465;57.664;39.686;2023-03-01T08:15:36;4.47;;;1.30;;
63342;SDS011;49465;57.664;39.686;2023-03-01T08:18:03;7.57;;;2.58;;
63342;SDS011;49465;57.664;39.686;2023-03-01T08:20:32;4.88;;;2.70;;
63342;SDS011;49465;57.664;39.686;2023-03-01T08:22:58;5.18;;;2.40;;
63342;SDS011;49465;57.664;39.686;2023-03-01T08:25:25;4.82;;;1.90;;
63342;SDS011;49465;57.664;39.686;2023-03-01T08:27:51;4.40;;;2.08;;
63342;SDS011;49465;57.664;39.686;2023-03-01T08:30:23;4.63;;;1.95;;
63342;SDS011;49465;57.664;39.686;2023-03-01T08:32:49;3.00;;;1.50;;
63342;SDS011;49465;57.664;39.686;2023-03-01T08:35:19;2.45;;;0.70;;
63342;SDS011;49465;57.664;39.686;2023-03-01T08:37:50;3.33;;;1.40;;
63342;SDS011;49465;57.664;39.686;2023-03-01T08:40:21;3.80;;;1.70;;
63342;SDS011;49465;57.664;39.686;2023-03-01T08:42:48;2.45;;;1.05;;
63342;SDS011;49465;57.664;39.686;2023-03-01T08:45:17;1.33;;;1.10;;
63342;SDS011;49465;57.664;39.686;2023-03-01T08:47:44;4.20;;;1.88;;
63342;SDS011;49465;57.664;39.686;2023-03-01T08:50:19;1.60;;;0.50;;
63342;SDS011;49465;57.664;39.686;2023-03-01T08:52:45;5.05;;;2.60;;
63342;SDS011;49465;57.664;39.686;2023-03-01T08:55:17;4.35;;;2.22;;
63342;SDS011;49465;57.664;39.686;2023-03-01T08:57:46;3.13;;;1.98;;
63342;SDS011;49465;57.664;39.686;2023-03-01T09:00:15;4.60;;;2.15;;
63342;SDS011;49465;57.664;39.686;2023-03-01T09:02:45;4.72;;;2.40;;
63342;SDS011;49465;57.664;39.686;2023-03-01T09:05:11;4.72;;;2.60;;
63342;SDS011;49465;57.664;39.686;2023-03-01T09:07:40;3.85;;;2.10;;
63342;SDS011;49465;57.664;39.686;2023-03-01T09:10:07;4.47;;;2.10;;
63342;SDS011;49465;57.664;39.686;2023-03-01T09:12:34;3.92;;;2.10;;
63342;SDS011;49465;57.664;39.686;2023-03-01T09:15:03;5.75;;;2.40;;
63342;SDS011;49465;57.664;39.686;2023-03-01T09:17:30;5.35;;;2.67;;
63342;SDS011;49465;57.664;39.686;2023-03-01T09:19:56;5.93;;;2.70;;
63342;SDS011;49465;57.664;39.686;2023-03-01T09:22:25;4.50;;;2.65;;
63342;SDS011;49465;57.664;39.686;2023-03-01T09:24:54;6.47;;;2.90;;
63342;SDS011;49465;57.664;39.686;2023-03-01T09:27:23;6.80;;;3.30;;
63342;SDS011;49465;57.664;39.686;2023-03-01T09:29:50;7.82;;;3.30;;
63342;SDS011;49465;57.664;39.686;2023-03-01T09:32:16;4.55;;;2.60;;
63342;SDS011;49465;57.664;39.686;2023-03-01T09:34:43;7.88;;;3.22;;
63342;SDS011;49465;57.664;39.686;2023-03-01T09:37:27;6.72;;;3.20;;
63342;SDS011;49465;57.664;39.686;2023-03-01T09:39:54;5.78;;;3.00;;
63342;SDS011;49465;57.664;39.686;2023-03-01T09:42:21;6.05;;;3.13;;
63342;SDS011;49465;57.664;39.686;2023-03-01T09:47:50;5.72;;;2.75;;
63342;SDS011;49465;57.664;39.686;2023-03-01T09:50:20;7.00;;;3.20;;
63342;SDS011;49465;57.664;39.686;2023-03-01T09:55:26;7.07;;;3.10;;
63342;SDS011;49465;57.664;39.686;2023-03-01T10:06:27;8.02;;;3.00;;
63342;SDS011;49465;57.664;39.686;2023-03-01T10:09:02;6.35;;;3.13;;
63342;SDS011;49465;57.664;39.686;2023-03-01T10:11:45;5.15;;;2.70;;
63342;SDS011;49465;57.664;39.686;2023-03-01T10:19:53;3.78;;;2.38;;
63342;SDS011;49465;57.664;39.686;2023-03-01T10:22:29;4.28;;;2.20;;
63342;SDS011;49465;57.664;39.686;2023-03-01T10:25:02;3.70;;;2.03;;
63342;SDS011;49465;57.664;39.686;2023-03-01T10:27:42;3.55;;;1.98;;
63342;SDS011;49465;57.664;39.686;2023-03-01T10:30:12;4.20;;;2.10;;
63342;SDS011;49465;57.664;39.686;2023-03-01T10:32:59;5.03;;;2.28;;
63342;SDS011;49465;57.664;39.686;2023-03-01T10:35:29;4.47;;;2.42;;
63342;SDS011;49465;57.664;39.686;2023-03-01T10:38:05;5.00;;;2.00;;
63342;SDS011;49465;57.664;39.686;2023-03-01T10:43:47;3.75;;;1.80;;
63342;SDS011;49465;57.664;39.686;2023-03-01T10:46:32;2.60;;;1.05;;
63342;SDS011;49465;57.664;39.686;2023-03-01T10:49:07;2.97;;;1.25;;
63342;SDS011;49465;57.664;39.686;2023-03-01T10:51:40;3.00;;;1.10;;
63342;SDS011;49465;57.664;39.686;2023-03-01T10:54:20;3.08;;;1.00;;
63342;SDS011;49465;57.664;39.686;2023-03-01T10:56:56;2.28;;;1.10;;
63342;SDS011;49465;57.664;39.686;2023-03-01T10:59:31;3.70;;;1.08;;
63342;SDS011;49465;57.664;39.686;2023-03-01T11:07:23;3.90;;;1.10;;
63342;SDS011;49465;57.664;39.686;2023-03-01T11:09:49;2.33;;;0.75;;
63342;SDS011;49465;57.664;39.686;2023-03-01T11:12:16;2.25;;;0.90;;
63342;SDS011;49465;57.664;39.686;2023-03-01T11:15:19;1.58;;;0.80;;
63342;SDS011;49465;57.664;39.686;2023-03-01T11:17:45;1.65;;;0.75;;
63342;SDS011;49465;57.664;39.686;2023-03-01T11:22:45;1.55;;;0.80;;
63342;SDS011;49465;57.664;39.686;2023-03-01T11:25:21;3.75;;;1.30;;
63342;SDS011;49465;57.664;39.686;2023-03-01T11:27:52;1.55;;;0.98;;
63342;SDS011;49465;57.664;39.686;2023-03-01T11:30:21;1.20;;;0.70;;
63342;SDS011;49465;57.664;39.686;2023-03-01T11:33:01;2.30;;;0.80;;
63342;SDS011;49465;57.664;39.686;2023-03-01T11:36:03;2.25;;;0.80;;
63342;SDS011;49465;57.664;39.686;2023-03-01T11:38:35;1.92;;;0.63;;
63342;SDS011;49465;57.664;39.686;2023-03-01T11:46:49;2.92;;;1.00;;
63342;SDS011;49465;57.664;39.686;2023-03-01T12:21:14;2.22;;;1.27;;
63342;SDS011;49465;57.664;39.686;2023-03-01T12:23:59;2.20;;;1.23;;
63342;SDS011;49465;57.664;39.686;2023-03-01T12:26:50;1.88;;;0.85;;
63342;SDS011;49465;57.664;39.686;2023-03-01T12:29:23;1.88;;;0.90;;
63342;SDS011;49465;57.664;39.686;2023-03-01T12:34:42;2.15;;;0.90;;
63342;SDS011;49465;57.664;39.686;2023-03-01T12:48:24;4.88;;;3.70;;
63342;SDS011;49465;57.664;39.686;2023-03-01T12:51:01;1.90;;;1.00;;
63342;SDS011;49465;57.664;39.686;2023-03-01T12:53:52;1.90;;;1.30;;
63342;SDS011;49465;57.664;39.686;2023-03-01T12:56:21;3.55;;;2.67;;
63342;SDS011;49465;57.664;39.686;2023-03-01T13:04:53;2.45;;;1.50;;
63342;SDS011;49465;57.664;39.686;2023-03-01T13:07:44;3.95;;;1.23;;
63342;SDS011;49465;57.664;39.686;2023-03-01T13:10:34;1.35;;;0.90;;
63342;SDS011;49465;57.664;39.686;2023-03-01T13:15:53;3.05;;;1.30;;
63342;SDS011;49465;57.664;39.686;2023-03-01T13:21:01;1.73;;;1.05;;
63342;SDS011;49465;57.664;39.686;2023-03-01T13:23:31;4.80;;;1.60;;
63342;SDS011;49465;57.664;39.686;2023-03-01T13:33:59;16.13;;;10.98;;
63342;SDS011;49465;57.664;39.686;2023-03-01T13:39:26;7.53;;;4.47;;
63342;SDS011;49465;57.664;39.686;2023-03-01T13:41:54;5.78;;;3.80;;
63342;SDS011;49465;57.664;39.686;2023-03-01T13:44:35;5.30;;;3.83;;
63342;SDS011;49465;57.664;39.686;2023-03-01T13:49:43;6.80;;;4.60;;
63342;SDS011;49465;57.664;39.686;2023-03-01T13:55:07;3.05;;;2.08;;
63342;SDS011;49465;57.664;39.686;2023-03-01T13:57:53;4.13;;;1.90;;
63342;SDS011;49465;57.664;39.686;2023-03-01T14:00:36;3.20;;;1.40;;
63342;SDS011;49465;57.664;39.686;2023-03-01T14:03:12;1.77;;;1.10;;
63342;SDS011;49465;57.664;39.686;2023-03-01T14:08:38;2.83;;;1.00;;
63342;SDS011;49465;57.664;39.686;2023-03-01T14:19:17;3.35;;;1.13;;
63342;SDS011;49465;57.664;39.686;2023-03-01T14:21:49;2.30;;;0.98;;
63342;SDS011;49465;57.664;39.686;2023-03-01T14:24:46;2.38;;;0.70;;
63342;SDS011;49465;57.664;39.686;2023-03-01T14:27:19;2.22;;;1.05;;
63342;SDS011;49465;57.664;39.686;2023-03-01T14:29:55;2.50;;;1.30;;
63342;SDS011;49465;57.664;39.686;2023-03-01T14:32:34;1.75;;;1.10;;
63342;SDS011;49465;57.664;39.686;2023-03-01T14:35:51;3.03;;;1.10;;
63342;SDS011;49465;57.664;39.686;2023-03-01T14:37:57;2.03;;;0.90;;
63342;SDS011;49465;57.664;39.686;2023-03-01T14:40:31;1.50;;;1.10;;
63342;SDS011;49465;57.664;39.686;2023-03-01T14:43:08;1.95;;;1.00;;
63342;SDS011;49465;57.664;39.686;2023-03-01T14:45:37;1.55;;;1.00;;
63342;SDS011;49465;57.664;39.686;2023-03-01T14:48:06;1.33;;;0.60;;
63342;SDS011;49465;57.664;39.686;2023-03-01T14:50:40;2.90;;;1.27;;
63342;SDS011;49465;57.664;39.686;2023-03-01T14:53:16;2.35;;;1.15;;
63342;SDS011;49465;57.664;39.686;2023-03-01T14:55:54;3.58;;;0.80;;
63342;SDS011;49465;57.664;39.686;2023-03-01T14:58:27;2.78;;;0.90;;
63342;SDS011;49465;57.664;39.686;2023-03-01T15:00:58;2.67;;;0.95;;
63342;SDS011;49465;57.664;39.686;2023-03-01T15:03:30;0.90;;;0.80;;
63342;SDS011;49465;57.664;39.686;2023-03-01T15:06:11;1.83;;;0.93;;
63342;SDS011;49465;57.664;39.686;2023-03-01T15:08:49;0.65;;;0.40;;
63342;SDS011;49465;57.664;39.686;2023-03-01T15:13:51;14.63;;;8.93;;
63342;SDS011;49465;57.664;39.686;2023-03-01T15:16:28;21.60;;;13.32;;
63342;SDS011;49465;57.664;39.686;2023-03-01T15:19:05;6.70;;;4.20;;
63342;SDS011;49465;57.664;39.686;2023-03-01T15:21:36;12.75;;;7.60;;
63342;SDS011;49465;57.664;39.686;2023-03-01T15:27:12;31.17;;;17.58;;
63342;SDS011;49465;57.664;39.686;2023-03-01T15:29:40;20.02;;;12.98;;
63342;SDS011;49465;57.664;39.686;2023-03-01T15:34:54;12.68;;;8.20;;
63342;SDS011;49465;57.664;39.686;2023-03-01T15:37:49;12.63;;;9.00;;
63342;SDS011;49465;57.664;39.686;2023-03-01T15:42:59;18.10;;;14.55;;
63342;SDS011;49465;57.664;39.686;2023-03-01T15:45:29;13.18;;;9.90;;
63342;SDS011;49465;57.664;39.686;2023-03-01T15:48:14;5.15;;;3.97;;
63342;SDS011;49465;57.664;39.686;2023-03-01T15:50:44;5.43;;;3.88;;
63342;SDS011;49465;57.664;39.686;2023-03-01T15:53:24;4.93;;;2.70;;
63342;SDS011;49465;57.664;39.686;2023-03-01T15:56:02;4.70;;;3.00;;
63342;SDS011;49465;57.664;39.686;2023-03-01T15:58:32;6.45;;;4.28;;
63342;SDS011;49465;57.664;39.686;2023-03-01T16:00:59;7.43;;;5.03;;
63342;SDS011;49465;57.664;39.686;2023-03-01T16:03:29;4.63;;;2.88;;
63342;SDS011;49465;57.664;39.686;2023-03-01T16:05:56;3.58;;;1.90;;
63342;SDS011;49465;57.664;39.686;2023-03-01T16:08:25;3.60;;;1.70;;
63342;SDS011;49465;57.664;39.686;2023-03-01T16:10:51;3.97;;;1.75;;
63342;SDS011;49465;57.664;39.686;2023-03-01T16:13:19;3.95;;;2.22;;
63342;SDS011;49465;57.664;39.686;2023-03-01T16:15:46;3.92;;;1.90;;
63342;SDS011;49465;57.664;39.686;2023-03-01T16:18:47;3.53;;;1.70;;
63342;SDS011;49465;57.664;39.686;2023-03-01T16:21:21;3.20;;;1.55;;
63342;SDS011;49465;57.664;39.686;2023-03-01T16:23:50;2.17;;;1.10;;
63342;SDS011;49465;57.664;39.686;2023-03-01T16:26:17;4.07;;;1.33;;
63342;SDS011;49465;57.664;39.686;2023-03-01T16:28:45;2.60;;;1.30;;
63342;SDS011;49465;57.664;39.686;2023-03-01T16:31:16;2.85;;;1.25;;
63342;SDS011;49465;57.664;39.686;2023-03-01T16:33:54;4.43;;;1.48;;
63342;SDS011;49465;57.664;39.686;2023-03-01T16:36:22;2.88;;;1.77;;
63342;SDS011;49465;57.664;39.686;2023-03-01T16:38:54;3.80;;;1.73;;
63342;SDS011;49465;57.664;39.686;2023-03-01T16:41:23;2.22;;;1.20;;
63342;SDS011;49465;57.664;39.686;2023-03-01T16:43:56;2.42;;;1.10;;
63342;SDS011;49465;57.664;39.686;2023-03-01T16:46:34;1.80;;;1.13;;
63342;SDS011;49465;57.664;39.686;2023-03-01T16:49:03;2.08;;;1.00;;
63342;SDS011;49465;57.664;39.686;2023-03-01T16:51:38;2.03;;;1.30;;
63342;SDS011;49465;57.664;39.686;2023-03-01T16:54:25;2.58;;;1.00;;
63342;SDS011;49465;57.664;39.686;2023-03-01T16:56:52;2.90;;;0.98;;
63342;SDS011;49465;57.664;39.686;2023-03-01T16:59:21;1.58;;;1.00;;
63342;SDS011;49465;57.664;39.686;2023-03-01T17:01:48;2.88;;;1.40;;
63342;SDS011;49465;57.664;39.686;2023-03-01T17:04:15;2.78;;;1.10;;
63342;SDS011;49465;57.664;39.686;2023-03-01T17:06:44;2.78;;;1.20;;
63342;SDS011;49465;57.664;39.686;2023-03-01T17:09:12;2.20;;;1.05;;
63342;SDS011;49465;57.664;39.686;2023-03-01T17:11:47;2.97;;;1.15;;
63342;SDS011;49465;57.664;39.686;2023-03-01T17:14:17;2.95;;;1.08;;
63342;SDS011;49465;57.664;39.686;2023-03-01T17:16:47;2.42;;;1.30;;
63342;SDS011;49465;57.664;39.686;2023-03-01T17:19:18;7.57;;;4.75;;
63342;SDS011;49465;57.664;39.686;2023-03-01T17:21:44;2.90;;;1.50;;
63342;SDS011;49465;57.664;39.686;2023-03-01T17:24:29;2.30;;;1.17;;
63342;SDS011;49465;57.664;39.686;2023-03-01T17:27:07;2.08;;;1.10;;
63342;SDS011;49465;57.664;39.686;2023-03-01T17:29:37;1.90;;;0.82;;
63342;SDS011;49465;57.664;39.686;2023-03-01T17:32:13;1.85;;;0.93;;